Last Tycoon — ZDJZ6 — position and weather

sailwx.info

Track history (hours):
 
Tides and Currents Weather Stations Pressure Air Temp Water Temp Dewpoint Dewpoint Depression Visibility Wind Speed Wind Dir Waves Ship Positions

Last Tycoon

Last reported at 2015-Jun-12 15:22 UTC. Time now 2015-Jul-03 12:21 UTC.
Position N 50°24' W 000°44'.
Warning: this ship's position is 20 days out of date.

Length 180 m; draft 10.5 m.

Type: Cargo ship. MMSI: 236607000.

Date/timePositionNaut miles runAvg speedWind from/ knotsBaromVisibWave heightAir tempDewpointWater temp
2015-Jun-12 15:22N 50°24' W 000°44'4013.0
2015-Jun-12 12:16N 50°34' E 000°17'1014.4
2015-Jun-12 11:34N 50°37' E 000°32'1413.9
2015-Jun-12 10:33N 50°45' E 000°51'1512.7
2015-Jun-12 09:23N 50°54' E 001°10'910.6
2015-Jun-12 08:33N 50°60' E 001°20'9 9.1
2015-Jun-12 07:34N 51°06' E 001°31'10 9.5
2015-Jun-12 06:33N 51°12' E 001°42'1111.4
2015-Jun-12 05:33N 51°22' E 001°52'1414.1
2015-Jun-12 04:33N 51°33' E 002°05'1514.6
2015-Jun-12 03:33N 51°44' E 002°21'1414.0
2015-Jun-12 02:33N 51°55' E 002°34'1313.1
2015-Jun-12 01:33N 52°08' E 002°37'1212.2
2015-Jun-12 00:33N 52°19' E 002°45'1211.9
2015-Jun-11 23:33N 52°30' E 002°54'2411.5
2015-Jun-11 21:31N 52°51' E 003°12'1111.9
2015-Jun-11 20:33N 53°02' E 003°18'1312.7
2015-Jun-11 19:33N 53°14' E 003°25'1313.2
2015-Jun-11 18:33N 53°26' E 003°31'1313.4
2015-Jun-11 17:33N 53°39' E 003°38'1312.9
2015-Jun-11 16:33N 53°49' E 003°53'1312.9
2015-Jun-11 15:33N 53°56' E 004°10'1212.4
2015-Jun-11 14:33N 54°05' E 004°26'1312.7
2015-Jun-11 13:32N 54°17' E 004°35'1312.8
2015-Jun-11 12:32N 54°28' E 004°44'1413.0
2015-Jun-11 11:29N 54°40' E 004°56'1313.1
2015-Jun-11 10:30N 54°51' E 005°08'1512.9
2015-Jun-11 09:19N 55°04' E 005°22'1012.9
2015-Jun-11 08:32N 55°13' E 005°31'17511.6
2015-Jun-10 17:28N 57°31' E 008°45'1010.6
2015-Jun-10 16:33N 57°37' E 008°59'1110.6
2015-Jun-10 15:33N 57°43' E 009°15'1110.7
2015-Jun-10 14:33N 57°48' E 009°33'1211.6
2015-Jun-10 13:32N 57°49' E 009°56'1111.6
2015-Jun-10 12:33N 57°49' E 010°17'1111.4
2015-Jun-10 11:33N 57°49' E 010°38'1010.1
2015-Jun-10 10:33N 57°44' E 010°55'1110.8
2015-Jun-10 09:33N 57°36' E 011°09'1111.2
2015-Jun-10 08:33N 57°29' E 011°25'1111.3
2015-Jun-10 07:33N 57°18' E 011°32'1211.7
2015-Jun-10 06:33N 57°07' E 011°39'1211.8
2015-Jun-10 05:33N 56°56' E 011°46'1111.3
2015-Jun-10 04:33N 56°45' E 011°53'1211.7
2015-Jun-10 03:33N 56°35' E 011°43'1111.4
2015-Jun-10 02:33N 56°25' E 011°33'1311.5
2015-Jun-10 01:24N 56°14' E 011°21'5310.8
2015-Jun-09 20:32N 55°22' E 011°02'1010.3
2015-Jun-09 19:32N 55°12' E 011°05'1010.3
2015-Jun-09 18:33N 55°02' E 011°00'1211.9
2015-Jun-09 17:33N 54°52' E 010°50'1111.4
2015-Jun-09 16:33N 54°41' E 010°47'1211.7
2015-Jun-09 15:33N 54°36' E 011°06'1211.8
2015-Jun-09 14:33N 54°32' E 011°25'1111.3
2015-Jun-09 13:33N 54°27' E 011°42'1111.1
2015-Jun-09 12:33N 54°26' E 012°01'8411.8
2015-Jun-09 05:29N 55°07' E 014°08'1313.2
2015-Jun-09 04:32N 55°17' E 014°21'1313.0
2015-Jun-09 03:33N 55°26' E 014°36'1313.3
2015-Jun-09 02:33N 55°33' E 014°57'1313.4
2015-Jun-09 01:33N 55°38' E 015°18'1313.1
2015-Jun-09 00:33N 55°42' E 015°41'5313.0
2015-Jun-08 20:30N 55°55' E 017°11'1512.9
2015-Jun-08 19:20N 55°59' E 017°37'1312.8
2015-Jun-08 18:20N 56°05' E 017°57'  
2015-Jun-03 08:24N 55°37' E 015°38'1112.8
2015-Jun-03 07:33N 55°34' E 015°20'1312.5
2015-Jun-03 06:33N 55°29' E 014°60'1312.5
2015-Jun-03 05:30N 55°23' E 014°39'1212.4
2015-Jun-03 04:33N 55°13' E 014°26'3712.0
2015-Jun-03 01:30N 55°12' E 013°22'1212.7
2015-Jun-03 00:33N 55°13' E 013°01'1312.7
2015-Jun-02 23:33N 55°17' E 012°40'1010.2
2015-Jun-02 22:33N 55°27' E 012°40'9 8.6
2015-Jun-02 21:33N 55°36' E 012°42'9 9.2
2015-Jun-02 20:33N 55°45' E 012°41'1010.0
2015-Jun-02 19:33N 55°55' E 012°44'1010.0
2015-Jun-02 18:33N 56°04' E 012°37'10 9.9
2015-Jun-02 17:33N 56°10' E 012°23'1111.3
2015-Jun-02 16:33N 56°16' E 012°07'1110.2
2015-Jun-02 15:27N 56°27' E 011°60'  
Track history (hours):
 
Tides and Currents Weather Stations Pressure Air Temp Water Temp Dewpoint Dewpoint Depression Visibility Wind Speed Wind Dir Waves Ship Positions

Last Tycoon

Last reported at 2015-Jun-12 15:22 UTC. Time now 2015-Jul-03 12:21 UTC.
Position N 50°24' W 000°44'.
Warning: this ship's position is 20 days out of date.

Length 180 m; draft 10.5 m.

Type: Cargo ship. MMSI: 236607000.

Date/timePositionNaut miles runAvg speedWind from/ knotsBaromVisibWave heightAir tempDewpointWater temp
2015-Jun-12 15:22N 50°24' W 000°44'4013.0
2015-Jun-12 12:16N 50°34' E 000°17'1014.4
2015-Jun-12 11:34N 50°37' E 000°32'1413.9
2015-Jun-12 10:33N 50°45' E 000°51'1512.7
2015-Jun-12 09:23N 50°54' E 001°10'910.6
2015-Jun-12 08:33N 50°60' E 001°20'9 9.1
2015-Jun-12 07:34N 51°06' E 001°31'10 9.5
2015-Jun-12 06:33N 51°12' E 001°42'1111.4
2015-Jun-12 05:33N 51°22' E 001°52'1414.1
2015-Jun-12 04:33N 51°33' E 002°05'1514.6
2015-Jun-12 03:33N 51°44' E 002°21'1414.0
2015-Jun-12 02:33N 51°55' E 002°34'1313.1
2015-Jun-12 01:33N 52°08' E 002°37'1212.2
2015-Jun-12 00:33N 52°19' E 002°45'1211.9
2015-Jun-11 23:33N 52°30' E 002°54'2411.5
2015-Jun-11 21:31N 52°51' E 003°12'1111.9
2015-Jun-11 20:33N 53°02' E 003°18'1312.7
2015-Jun-11 19:33N 53°14' E 003°25'1313.2
2015-Jun-11 18:33N 53°26' E 003°31'1313.4
2015-Jun-11 17:33N 53°39' E 003°38'1312.9
2015-Jun-11 16:33N 53°49' E 003°53'1312.9
2015-Jun-11 15:33N 53°56' E 004°10'1212.4
2015-Jun-11 14:33N 54°05' E 004°26'1312.7
2015-Jun-11 13:32N 54°17' E 004°35'1312.8
2015-Jun-11 12:32N 54°28' E 004°44'1413.0
2015-Jun-11 11:29N 54°40' E 004°56'1313.1
2015-Jun-11 10:30N 54°51' E 005°08'1512.9
2015-Jun-11 09:19N 55°04' E 005°22'1012.9
2015-Jun-11 08:32N 55°13' E 005°31'17511.6
2015-Jun-10 17:28N 57°31' E 008°45'1010.6
2015-Jun-10 16:33N 57°37' E 008°59'1110.6
2015-Jun-10 15:33N 57°43' E 009°15'1110.7
2015-Jun-10 14:33N 57°48' E 009°33'1211.6
2015-Jun-10 13:32N 57°49' E 009°56'1111.6
2015-Jun-10 12:33N 57°49' E 010°17'1111.4
2015-Jun-10 11:33N 57°49' E 010°38'1010.1
2015-Jun-10 10:33N 57°44' E 010°55'1110.8
2015-Jun-10 09:33N 57°36' E 011°09'1111.2
2015-Jun-10 08:33N 57°29' E 011°25'1111.3
2015-Jun-10 07:33N 57°18' E 011°32'1211.7
2015-Jun-10 06:33N 57°07' E 011°39'1211.8
2015-Jun-10 05:33N 56°56' E 011°46'1111.3
2015-Jun-10 04:33N 56°45' E 011°53'1211.7
2015-Jun-10 03:33N 56°35' E 011°43'1111.4
2015-Jun-10 02:33N 56°25' E 011°33'1311.5
2015-Jun-10 01:24N 56°14' E 011°21'5310.8
2015-Jun-09 20:32N 55°22' E 011°02'1010.3
2015-Jun-09 19:32N 55°12' E 011°05'1010.3
2015-Jun-09 18:33N 55°02' E 011°00'1211.9
2015-Jun-09 17:33N 54°52' E 010°50'1111.4
2015-Jun-09 16:33N 54°41' E 010°47'1211.7
2015-Jun-09 15:33N 54°36' E 011°06'1211.8
2015-Jun-09 14:33N 54°32' E 011°25'1111.3
2015-Jun-09 13:33N 54°27' E 011°42'1111.1
2015-Jun-09 12:33N 54°26' E 012°01'8411.8
2015-Jun-09 05:29N 55°07' E 014°08'1313.2
2015-Jun-09 04:32N 55°17' E 014°21'1313.0
2015-Jun-09 03:33N 55°26' E 014°36'1313.3
2015-Jun-09 02:33N 55°33' E 014°57'1313.4
2015-Jun-09 01:33N 55°38' E 015°18'1313.1
2015-Jun-09 00:33N 55°42' E 015°41'5313.0
2015-Jun-08 20:30N 55°55' E 017°11'1512.9
2015-Jun-08 19:20N 55°59' E 017°37'1312.8
2015-Jun-08 18:20N 56°05' E 017°57'  
2015-Jun-03 08:24N 55°37' E 015°38'1112.8
2015-Jun-03 07:33N 55°34' E 015°20'1312.5
2015-Jun-03 06:33N 55°29' E 014°60'1312.5
2015-Jun-03 05:30N 55°23' E 014°39'1212.4
2015-Jun-03 04:33N 55°13' E 014°26'3712.0
2015-Jun-03 01:30N 55°12' E 013°22'1212.7
2015-Jun-03 00:33N 55°13' E 013°01'1312.7
2015-Jun-02 23:33N 55°17' E 012°40'1010.2
2015-Jun-02 22:33N 55°27' E 012°40'9 8.6
2015-Jun-02 21:33N 55°36' E 012°42'9 9.2
2015-Jun-02 20:33N 55°45' E 012°41'1010.0
2015-Jun-02 19:33N 55°55' E 012°44'1010.0
2015-Jun-02 18:33N 56°04' E 012°37'10 9.9
2015-Jun-02 17:33N 56°10' E 012°23'1111.3
2015-Jun-02 16:33N 56°16' E 012°07'1110.2
2015-Jun-02 15:27N 56°27' E 011°60'  

Dump ship's entire track history